createdAt,value
2019-03-03T00:00:52.667Z,330.13
2019-03-03T00:02:57.454Z,152.83
2019-03-03T00:05:08.091Z,71.80
2019-03-03T00:07:13.119Z,39.57
2019-03-03T00:09:20.724Z,203.80
2019-03-03T00:11:28.794Z,262.20
2019-03-03T00:13:33.674Z,176.60
2019-03-03T00:15:38.403Z,194.80
2019-03-03T00:17:43.559Z,211.93
2019-03-03T00:19:47.958Z,181.43
2019-03-03T00:21:52.486Z,174.93
2019-03-03T00:23:57.221Z,320.87
2019-03-03T00:26:01.568Z,523.63
2019-03-03T00:28:05.794Z,473.77
2019-03-03T00:30:10.692Z,443.63
2019-03-03T00:32:15.020Z,441.97
2019-03-03T00:34:19.489Z,341.20
2019-03-03T00:36:26.004Z,437.70
2019-03-03T00:38:55.558Z,698.70
2019-03-03T00:41:18.993Z,632.60
2019-03-03T00:43:42.661Z,648.93
2019-03-03T00:46:21.458Z,589.63
2019-03-03T00:48:41.970Z,840.00
2019-03-03T00:51:02.322Z,609.53
2019-03-03T00:53:18.942Z,487.70
2019-03-03T00:55:42.209Z,460.63
2019-03-03T00:58:04.135Z,516.53
2019-03-03T01:00:38.975Z,484.73
2019-03-03T01:02:53.186Z,522.83
2019-03-03T01:05:09.204Z,341.93
2019-03-03T01:07:24.352Z,267.33
2019-03-03T01:09:47.024Z,366.17
2019-03-03T01:12:07.795Z,322.73
2019-03-03T01:14:18.061Z,141.43
2019-03-03T01:16:44.500Z,158.37
2019-03-03T01:19:03.577Z,418.63
2019-03-03T01:21:25.422Z,359.47
2019-03-03T01:23:47.497Z,459.40
2019-03-03T01:25:51.826Z,440.63
2019-03-03T01:27:56.259Z,401.03
2019-03-03T01:30:00.867Z,395.53
2019-03-03T01:32:05.173Z,287.83
2019-03-03T01:34:09.484Z,247.90
2019-03-03T01:36:14.217Z,323.57
2019-03-03T01:38:18.520Z,283.67
2019-03-03T01:40:22.770Z,221.20
2019-03-03T01:42:27.353Z,197.97
2019-03-03T01:44:31.870Z,187.00
2019-03-03T01:46:36.191Z,321.70
2019-03-03T01:48:40.817Z,429.53
2019-03-03T01:50:45.170Z,518.23
2019-03-03T01:52:49.825Z,508.37
2019-03-03T01:54:54.345Z,492.33
2019-03-03T01:56:58.689Z,299.50
2019-03-03T01:59:02.904Z,307.70
2019-03-03T02:01:07.864Z,341.17
2019-03-03T02:03:12.131Z,362.87
2019-03-03T02:05:16.326Z,332.70
2019-03-03T02:07:20.558Z,382.37
2019-03-03T02:09:25.351Z,245.43
2019-03-03T02:11:29.542Z,214.70
2019-03-03T02:13:35.342Z,258.20
2019-03-03T02:15:39.821Z,217.60
2019-03-03T02:17:44.109Z,251.80
2019-03-03T02:19:48.698Z,223.87
2019-03-03T02:21:53.010Z,197.23
2019-03-03T02:23:57.394Z,235.23
2019-03-03T02:26:02.117Z,206.10
2019-03-03T02:28:06.310Z,411.70
2019-03-03T02:30:13.865Z,473.03
2019-03-03T02:32:19.700Z,499.87
2019-03-03T02:34:24.111Z,511.17
2019-03-03T02:36:28.454Z,311.50
2019-03-03T02:38:33.257Z,389.53
2019-03-03T02:40:38.778Z,330.20
2019-03-03T02:42:43.643Z,375.90
2019-03-03T02:44:48.031Z,247.13
2019-03-03T02:46:53.728Z,328.83
2019-03-03T02:48:58.224Z,331.80
2019-03-03T02:51:02.528Z,320.10
2019-03-03T02:53:09.194Z,273.80
2019-03-03T02:55:13.708Z,259.57
2019-03-03T02:57:18.003Z,266.67
2019-03-03T02:59:22.620Z,158.83
2019-03-03T03:01:32.911Z,185.67
2019-03-03T03:03:36.799Z,124.10
2019-03-03T03:05:58.707Z,180.00
2019-03-03T03:08:06.220Z,133.30
2019-03-03T03:10:15.878Z,117.40
2019-03-03T03:12:45.728Z,138.07
2019-03-03T03:15:09.047Z,145.70
2019-03-03T03:17:30.845Z,142.93
2019-03-03T03:20:00.331Z,122.80
2019-03-03T03:22:22.084Z,93.93
2019-03-03T03:24:45.188Z,433.03
2019-03-03T03:26:58.350Z,477.33
2019-03-03T03:29:28.047Z,448.97
2019-03-03T03:31:49.900Z,276.77
2019-03-03T03:34:13.549Z,292.30
2019-03-03T03:36:37.112Z,267.90
2019-03-03T03:38:50.629Z,262.70
2019-03-03T03:41:02.485Z,247.53
2019-03-03T03:43:35.214Z,168.77
2019-03-03T03:45:56.743Z,239.50
2019-03-03T03:48:14.232Z,220.50
2019-03-03T03:50:37.760Z,173.70
2019-03-03T03:52:55.976Z,147.07
2019-03-03T03:55:37.492Z,174.37
2019-03-03T03:58:15.715Z,182.10
2019-03-03T04:00:39.471Z,152.43
2019-03-03T04:03:06.070Z,140.33
2019-03-03T04:05:41.754Z,133.83
2019-03-03T04:08:09.002Z,118.03
2019-03-03T04:10:41.346Z,136.10
2019-03-03T04:13:05.376Z,148.53
2019-03-03T04:15:31.799Z,132.30
2019-03-03T04:18:01.386Z,116.67
2019-03-03T04:20:24.614Z,152.77
2019-03-03T04:22:45.597Z,120.47
2019-03-03T04:25:07.251Z,112.10
2019-03-03T04:27:37.342Z,112.80
2019-03-03T04:30:01.305Z,77.20
2019-03-03T04:32:18.773Z,93.93
2019-03-03T04:34:46.323Z,94.50
2019-03-03T04:37:12.338Z,112.47
2019-03-03T04:39:35.686Z,110.00
2019-03-03T04:41:57.918Z,116.77
2019-03-03T04:44:16.430Z,88.57
2019-03-03T04:46:36.679Z,113.97
2019-03-03T04:49:06.683Z,84.57
2019-03-03T04:51:35.590Z,88.43
2019-03-03T04:53:57.399Z,86.97
2019-03-03T04:56:14.756Z,76.70
2019-03-03T04:58:43.812Z,107.93
2019-03-03T05:01:21.961Z,66.67
2019-03-03T05:03:37.699Z,74.43
2019-03-03T05:05:57.783Z,53.03
2019-03-03T05:08:07.833Z,70.73
2019-03-03T05:10:42.973Z,64.10
2019-03-03T05:13:00.395Z,55.17
2019-03-03T05:15:24.952Z,60.60
2019-03-03T05:17:41.905Z,63.00
2019-03-03T05:19:50.832Z,58.00
2019-03-03T05:21:55.107Z,66.33
2019-03-03T05:23:59.332Z,55.83
2019-03-03T05:26:03.822Z,77.50
2019-03-03T05:28:08.206Z,60.47
2019-03-03T05:30:12.580Z,60.40
2019-03-03T05:32:17.616Z,55.20
2019-03-03T05:34:21.818Z,55.37
2019-03-03T05:36:26.090Z,52.20
2019-03-03T05:38:30.456Z,67.90
2019-03-03T05:40:34.915Z,44.57
2019-03-03T05:42:39.107Z,45.20
2019-03-03T05:44:43.666Z,38.23
2019-03-03T05:46:48.578Z,51.77
2019-03-03T05:48:52.846Z,42.90
2019-03-03T05:50:57.695Z,44.20
2019-03-03T05:53:01.923Z,45.60
2019-03-03T05:55:06.391Z,39.73
2019-03-03T05:57:10.738Z,44.37
2019-03-03T05:59:14.940Z,34.03
2019-03-03T06:01:19.446Z,42.03
2019-03-03T06:03:24.193Z,30.30
2019-03-03T06:05:28.436Z,33.43
2019-03-03T06:07:32.678Z,42.90
2019-03-03T06:09:37.358Z,39.77
2019-03-03T06:11:41.569Z,37.80
2019-03-03T06:13:45.982Z,38.73
2019-03-03T06:15:51.172Z,38.60
2019-03-03T06:17:55.693Z,36.23
2019-03-03T06:20:00.018Z,49.23
2019-03-03T06:22:04.676Z,36.93
2019-03-03T06:24:08.985Z,42.43
2019-03-03T06:26:13.269Z,28.20
2019-03-03T06:28:18.187Z,29.50
2019-03-03T06:30:22.380Z,31.33
2019-03-03T06:32:26.975Z,38.20
2019-03-03T06:34:31.268Z,28.80
2019-03-03T06:36:35.776Z,32.20
2019-03-03T06:38:39.913Z,30.17
2019-03-03T06:40:44.484Z,32.07
2019-03-03T06:42:49.019Z,24.73
2019-03-03T06:44:53.806Z,31.77
2019-03-03T06:46:58.394Z,25.10
2019-03-03T06:49:02.642Z,25.57
2019-03-03T06:51:07.042Z,29.70
2019-03-03T06:53:11.793Z,22.87
2019-03-03T06:55:16.371Z,24.40
2019-03-03T06:57:20.610Z,34.60
2019-03-03T06:59:25.141Z,22.17
2019-03-03T07:01:29.482Z,21.03
2019-03-03T07:03:33.984Z,19.13
2019-03-03T07:05:38.550Z,20.37
2019-03-03T07:07:43.975Z,23.87
2019-03-03T07:09:48.279Z,23.23
2019-03-03T07:11:53.384Z,18.30
2019-03-03T07:13:57.945Z,19.30
2019-03-03T07:16:02.194Z,17.33
2019-03-03T07:18:06.670Z,15.33
2019-03-03T07:20:11.663Z,17.17
2019-03-03T07:22:15.887Z,18.10
2019-03-03T07:24:20.484Z,18.27
2019-03-03T07:26:28.714Z,16.87
2019-03-03T07:28:34.338Z,15.23
2019-03-03T07:30:38.936Z,15.60
2019-03-03T07:33:12.515Z,15.60
2019-03-03T07:35:18.276Z,14.30
2019-03-03T07:37:22.486Z,14.30
2019-03-03T07:39:26.658Z,13.70
2019-03-03T07:41:31.221Z,14.90
2019-03-03T07:43:35.440Z,13.00
2019-03-03T07:45:40.354Z,15.07
2019-03-03T07:47:45.349Z,15.50
2019-03-03T07:49:51.730Z,11.77
2019-03-03T07:51:55.955Z,10.20
2019-03-03T07:54:00.576Z,8.17
2019-03-03T07:56:06.552Z,12.50
2019-03-03T07:58:11.541Z,8.80
2019-03-03T08:00:16.418Z,11.87
2019-03-03T08:02:23.965Z,14.40
2019-03-03T08:04:28.532Z,12.37
2019-03-03T08:06:35.920Z,8.17
2019-03-03T08:08:41.199Z,10.03
2019-03-03T08:10:45.688Z,8.93
2019-03-03T08:12:50.455Z,12.60
2019-03-03T08:14:55.001Z,7.23
2019-03-03T08:16:59.494Z,7.10
2019-03-03T08:19:09.333Z,8.53
2019-03-03T08:21:14.974Z,8.77
2019-03-03T08:23:20.789Z,8.50
2019-03-03T08:25:25.492Z,6.73
2019-03-03T08:27:29.779Z,9.50
2019-03-03T08:29:34.172Z,10.73
2019-03-03T08:31:38.618Z,12.80
2019-03-03T08:33:46.058Z,11.83
2019-03-03T08:35:50.322Z,6.60
2019-03-03T08:37:55.076Z,8.40
2019-03-03T08:39:59.637Z,5.23
2019-03-03T08:42:24.821Z,9.20
2019-03-03T08:44:48.153Z,8.87
2019-03-03T08:47:17.310Z,8.27
2019-03-03T08:49:39.933Z,8.20
2019-03-03T08:51:54.751Z,8.03
2019-03-03T08:54:36.805Z,8.23
2019-03-03T08:56:58.564Z,6.20
2019-03-03T08:59:25.642Z,5.00
2019-03-03T09:01:52.293Z,7.53
2019-03-03T09:04:05.508Z,6.43
2019-03-03T09:06:38.317Z,8.07
2019-03-03T09:09:04.680Z,8.07
2019-03-03T09:11:44.106Z,9.53
2019-03-03T09:14:01.471Z,6.30
2019-03-03T09:16:21.005Z,8.03
2019-03-03T09:18:35.732Z,9.60
2019-03-03T09:20:59.526Z,5.90
2019-03-03T09:23:31.987Z,7.10
2019-03-03T09:26:08.178Z,4.80
2019-03-03T09:28:50.121Z,6.93
2019-03-03T09:31:05.567Z,6.03
2019-03-03T09:33:49.476Z,5.80
2019-03-03T09:36:27.275Z,9.73
2019-03-03T09:38:52.265Z,8.43
2019-03-03T09:41:19.215Z,8.07
2019-03-03T09:43:29.718Z,8.13
2019-03-03T09:45:58.642Z,6.40
2019-03-03T09:48:13.023Z,6.00
2019-03-03T09:50:35.795Z,5.30
2019-03-03T09:52:54.999Z,5.77
2019-03-03T09:55:27.954Z,6.70
2019-03-03T09:57:51.757Z,6.30
2019-03-03T10:00:16.132Z,4.73
2019-03-03T10:02:42.397Z,7.67
2019-03-03T10:05:18.355Z,8.43
2019-03-03T10:07:53.751Z,5.50
2019-03-03T10:10:10.585Z,3.73
2019-03-03T10:12:23.564Z,66.20
2019-03-03T10:14:34.690Z,141.90
2019-03-03T10:17:05.449Z,165.07
2019-03-03T10:19:39.776Z,189.43
2019-03-03T10:22:09.383Z,213.60
2019-03-03T10:24:24.863Z,234.77
2019-03-03T10:26:52.300Z,241.60
2019-03-03T10:29:21.230Z,255.70
2019-03-03T10:31:48.154Z,499.47
2019-03-03T10:34:27.539Z,590.60
2019-03-03T10:37:03.330Z,569.77
2019-03-03T10:39:27.522Z,502.20
2019-03-03T10:42:09.980Z,494.93
2019-03-03T10:44:46.620Z,465.90
2019-03-03T10:47:07.938Z,491.50
2019-03-03T10:49:24.718Z,529.20
2019-03-03T10:51:42.229Z,517.73
2019-03-03T10:53:57.791Z,501.23
2019-03-03T10:56:23.612Z,507.73
2019-03-03T10:58:45.626Z,503.97
2019-03-03T11:00:55.523Z,547.83
2019-03-03T11:03:18.673Z,626.70
2019-03-03T11:05:40.592Z,580.63
2019-03-03T11:08:10.184Z,585.07
2019-03-03T11:10:23.846Z,580.57
2019-03-03T11:12:56.745Z,575.33
2019-03-03T11:15:18.890Z,613.93
2019-03-03T11:17:55.989Z,617.53
2019-03-03T11:20:22.391Z,645.07
2019-03-03T11:22:44.414Z,668.03
2019-03-03T11:25:07.661Z,646.43
2019-03-03T11:27:49.130Z,657.73
2019-03-03T11:30:08.864Z,828.17
2019-03-03T11:32:32.388Z,728.73
2019-03-03T11:35:07.751Z,745.30
2019-03-03T11:37:29.860Z,709.50
2019-03-03T11:39:53.644Z,712.60
2019-03-03T11:42:32.083Z,714.17
2019-03-03T11:45:04.089Z,712.07
2019-03-03T11:47:35.202Z,703.03
2019-03-03T11:50:02.057Z,790.43
2019-03-03T11:52:36.080Z,724.37
2019-03-03T11:54:47.865Z,694.00
2019-03-03T11:56:58.389Z,647.43
2019-03-03T11:59:32.595Z,631.87
2019-03-03T12:02:14.054Z,695.30
2019-03-03T12:04:29.958Z,630.90
2019-03-03T12:06:47.011Z,626.23
2019-03-03T12:09:12.994Z,1114.03
2019-03-03T12:11:39.398Z,602.03
2019-03-03T12:14:03.274Z,591.73
2019-03-03T12:16:26.869Z,572.33
2019-03-03T12:19:01.627Z,567.83
2019-03-03T12:21:28.099Z,557.63
2019-03-03T12:23:42.431Z,537.10
2019-03-03T12:26:20.730Z,529.93
2019-03-03T12:28:46.918Z,539.37
2019-03-03T12:31:09.440Z,524.77
2019-03-03T12:33:31.718Z,505.20
2019-03-03T12:35:55.015Z,715.03
2019-03-03T12:38:16.106Z,638.90
2019-03-03T12:40:58.099Z,1278.47
2019-03-03T12:43:23.979Z,727.60
2019-03-03T12:45:44.150Z,631.00
2019-03-03T12:48:13.117Z,533.57
2019-03-03T12:50:40.911Z,478.70
2019-03-03T12:53:00.582Z,465.87
2019-03-03T12:55:19.170Z,456.40
2019-03-03T12:57:31.035Z,445.53
2019-03-03T12:59:48.718Z,440.33
2019-03-03T13:02:20.962Z,435.17
2019-03-03T13:04:45.077Z,593.87
2019-03-03T13:07:07.047Z,872.03
2019-03-03T13:09:36.759Z,975.10
2019-03-03T13:11:55.526Z,1077.63
2019-03-03T13:14:23.070Z,1219.40
2019-03-03T13:16:37.564Z,1144.53
2019-03-03T13:19:04.120Z,1086.77
2019-03-03T13:21:25.427Z,779.43
2019-03-03T13:23:40.696Z,613.33
2019-03-03T13:26:13.277Z,519.10
2019-03-03T13:28:35.237Z,406.40
2019-03-03T13:30:50.193Z,622.53
2019-03-03T13:33:13.783Z,591.13
2019-03-03T13:35:40.766Z,476.03
2019-03-03T13:37:54.416Z,376.93
2019-03-03T13:40:15.414Z,342.37
2019-03-03T13:42:35.137Z,326.93
2019-03-03T13:44:39.413Z,311.23
2019-03-03T13:46:45.172Z,307.87
2019-03-03T13:48:51.311Z,295.07
2019-03-03T13:50:57.223Z,285.77
2019-03-03T13:53:01.768Z,285.50
2019-03-03T13:55:10.477Z,277.13
2019-03-03T13:57:16.123Z,263.37
2019-03-03T13:59:20.876Z,266.23
2019-03-03T14:01:29.239Z,256.97
2019-03-03T14:03:33.543Z,249.33
2019-03-03T14:05:38.197Z,243.60
2019-03-03T14:07:42.438Z,248.97
2019-03-03T14:09:46.821Z,236.53
2019-03-03T14:11:51.083Z,232.70
2019-03-03T14:13:59.465Z,231.70
2019-03-03T14:16:06.361Z,228.20
2019-03-03T14:18:13.780Z,225.30
2019-03-03T14:20:20.072Z,224.47
2019-03-03T14:22:24.925Z,220.57
2019-03-03T14:24:31.939Z,213.93
2019-03-03T14:26:37.833Z,213.40
2019-03-03T14:28:43.795Z,206.20
2019-03-03T14:30:48.649Z,211.93
2019-03-03T14:32:53.682Z,201.13
2019-03-03T14:34:58.742Z,190.10
2019-03-03T14:37:03.127Z,193.23
2019-03-03T14:39:08.375Z,186.77
2019-03-03T14:41:12.740Z,179.80
2019-03-03T14:43:19.224Z,186.90
2019-03-03T14:45:25.960Z,177.37
2019-03-03T14:47:30.550Z,175.17
2019-03-03T14:49:35.935Z,174.67
2019-03-03T14:51:41.840Z,176.30
2019-03-03T14:53:46.981Z,170.30
2019-03-03T14:55:58.544Z,166.77
2019-03-03T14:58:03.812Z,166.43
2019-03-03T15:00:41.589Z,169.20
2019-03-03T15:02:46.535Z,159.07
2019-03-03T15:04:50.975Z,160.73
2019-03-03T15:06:55.455Z,163.97
2019-03-03T15:09:00.869Z,155.73
2019-03-03T15:11:05.791Z,153.77
2019-03-03T15:13:10.254Z,152.40
2019-03-03T15:15:15.100Z,148.40
2019-03-03T15:17:19.368Z,143.23
2019-03-03T15:19:24.152Z,141.70
2019-03-03T15:21:30.249Z,140.80
2019-03-03T15:23:34.524Z,140.90
2019-03-03T15:25:38.683Z,137.17
2019-03-03T15:27:44.485Z,136.63
2019-03-03T15:29:48.864Z,130.90
2019-03-03T15:31:53.385Z,131.27
2019-03-03T15:33:58.355Z,141.47
2019-03-03T15:36:02.551Z,127.93
2019-03-03T15:38:06.999Z,127.27
2019-03-03T15:40:18.644Z,125.00
2019-03-03T15:42:22.922Z,128.30
2019-03-03T15:44:27.165Z,121.53
2019-03-03T15:46:32.295Z,119.73
2019-03-03T15:48:36.533Z,117.30
2019-03-03T15:50:40.866Z,114.33
2019-03-03T15:52:48.105Z,114.80
2019-03-03T15:54:58.292Z,119.00
2019-03-03T15:57:03.502Z,110.53
2019-03-03T15:59:08.698Z,113.17
2019-03-03T16:01:16.244Z,111.80
2019-03-03T16:03:20.537Z,107.90
2019-03-03T16:05:25.487Z,108.50
2019-03-03T16:07:29.842Z,100.10
2019-03-03T16:09:34.821Z,103.33
2019-03-03T16:11:39.673Z,102.73
2019-03-03T16:13:45.696Z,103.30
2019-03-03T16:15:49.876Z,100.60
2019-03-03T16:17:54.126Z,99.97
2019-03-03T16:19:58.556Z,95.60
2019-03-03T16:22:03.329Z,104.73
2019-03-03T16:24:08.627Z,93.80
2019-03-03T16:26:14.912Z,98.53
2019-03-03T16:28:19.570Z,203.40
2019-03-03T16:30:25.498Z,659.33
2019-03-03T16:32:30.071Z,846.97
2019-03-03T16:34:35.150Z,837.67
2019-03-03T16:36:42.826Z,552.63
2019-03-03T16:38:52.281Z,325.00
2019-03-03T16:40:57.248Z,663.03
2019-03-03T16:43:01.952Z,729.83
2019-03-03T16:45:10.331Z,752.23
2019-03-03T16:47:15.689Z,815.63
2019-03-03T16:49:20.396Z,801.97
2019-03-03T16:51:25.743Z,573.93
2019-03-03T16:53:35.746Z,1410.37
2019-03-03T16:55:41.001Z,1002.13
2019-03-03T16:57:51.631Z,702.50
2019-03-03T16:59:59.165Z,517.77
2019-03-03T17:02:04.738Z,322.57
2019-03-03T17:04:10.374Z,195.90
2019-03-03T17:06:20.393Z,410.33
2019-03-03T17:08:25.859Z,915.97
2019-03-03T17:10:31.685Z,766.17
2019-03-03T17:12:36.400Z,765.87
2019-03-03T17:14:42.035Z,658.67
2019-03-03T17:16:46.531Z,516.30
2019-03-03T17:18:51.184Z,649.07
2019-03-03T17:20:56.785Z,554.87
2019-03-03T17:23:01.681Z,445.70
2019-03-03T17:25:09.695Z,259.53
2019-03-03T17:27:14.043Z,157.23
2019-03-03T17:29:20.214Z,98.40
2019-03-03T17:31:26.543Z,81.67
2019-03-03T17:33:37.726Z,70.70
2019-03-03T17:35:42.546Z,64.07
2019-03-03T17:37:47.821Z,73.57
2019-03-03T17:39:53.145Z,62.00
2019-03-03T17:41:57.661Z,59.50
2019-03-03T17:44:02.609Z,60.97
2019-03-03T17:46:07.261Z,62.00
2019-03-03T17:48:12.314Z,273.33
2019-03-03T17:50:17.767Z,475.80
2019-03-03T17:52:22.530Z,414.07
2019-03-03T17:54:27.162Z,426.20
2019-03-03T17:56:35.434Z,127.57
2019-03-03T17:58:40.423Z,307.50
2019-03-03T18:00:49.999Z,271.63
2019-03-03T18:02:55.558Z,747.17
2019-03-03T18:05:00.685Z,855.73
2019-03-03T18:07:09.277Z,585.63
2019-03-03T18:09:14.831Z,770.47
2019-03-03T18:11:21.976Z,1243.03
2019-03-03T18:13:26.761Z,1234.40
2019-03-03T18:15:31.521Z,1140.97
2019-03-03T18:17:37.058Z,864.20
2019-03-03T18:19:42.184Z,1202.30
2019-03-03T18:21:47.757Z,985.33
2019-03-03T18:23:52.386Z,790.47
2019-03-03T18:25:57.591Z,670.17
2019-03-03T18:28:02.527Z,651.43
2019-03-03T18:30:27.292Z,451.03
2019-03-03T18:32:32.692Z,213.87
2019-03-03T18:34:37.291Z,146.50
2019-03-03T18:36:41.523Z,362.47
2019-03-03T18:38:47.501Z,269.67
2019-03-03T18:40:52.841Z,139.20
2019-03-03T18:42:57.828Z,182.33
2019-03-03T18:45:04.885Z,135.17
2019-03-03T18:47:21.691Z,380.40
2019-03-03T18:49:27.015Z,230.50
2019-03-03T18:51:32.517Z,198.07
2019-03-03T18:53:41.153Z,325.17
2019-03-03T18:55:45.911Z,256.47
2019-03-03T18:57:54.134Z,246.37
2019-03-03T18:59:58.733Z,445.33
2019-03-03T19:02:04.000Z,417.23
2019-03-03T19:04:09.066Z,257.17
2019-03-03T19:06:13.892Z,391.20
2019-03-03T19:08:18.586Z,417.20
2019-03-03T19:10:25.370Z,363.33
2019-03-03T19:12:30.991Z,191.60
2019-03-03T19:14:36.104Z,87.67
2019-03-03T19:16:41.449Z,84.07
2019-03-03T19:18:49.978Z,67.20
2019-03-03T19:20:54.244Z,106.17
2019-03-03T19:23:03.077Z,142.60
2019-03-03T19:25:09.456Z,57.47
2019-03-03T19:27:18.642Z,92.90
2019-03-03T19:29:27.186Z,417.53
2019-03-03T19:31:34.070Z,558.80
2019-03-03T19:33:48.629Z,355.27
2019-03-03T19:35:52.867Z,94.70
2019-03-03T19:37:59.508Z,62.30
2019-03-03T19:40:10.401Z,311.27
2019-03-03T19:42:14.914Z,547.90
2019-03-03T19:44:29.376Z,323.17
2019-03-03T19:46:37.386Z,357.53
2019-03-03T19:48:45.115Z,242.07
2019-03-03T19:50:59.087Z,103.57
2019-03-03T19:53:11.400Z,429.97
2019-03-03T19:55:23.416Z,500.57
2019-03-03T19:57:29.666Z,286.13
2019-03-03T19:59:36.960Z,293.13
2019-03-03T20:01:43.909Z,190.93
2019-03-03T20:03:55.465Z,134.27
2019-03-03T20:06:10.067Z,357.47
2019-03-03T20:08:14.511Z,129.77
2019-03-03T20:10:19.611Z,67.83
2019-03-03T20:12:28.156Z,53.87
2019-03-03T20:14:33.923Z,51.80
2019-03-03T20:16:57.702Z,43.27
2019-03-03T20:19:02.864Z,45.93
2019-03-03T20:21:10.356Z,39.40
2019-03-03T20:23:18.925Z,42.87
2019-03-03T20:25:28.338Z,96.23
2019-03-03T20:27:33.535Z,185.90
2019-03-03T20:29:39.616Z,96.50
2019-03-03T20:31:44.536Z,117.00
2019-03-03T20:33:54.788Z,61.53
2019-03-03T20:36:00.677Z,67.70
2019-03-03T20:38:08.280Z,58.40
2019-03-03T20:40:14.193Z,107.10
2019-03-03T20:42:19.006Z,56.00
2019-03-03T20:44:24.652Z,399.73
2019-03-03T20:46:29.446Z,115.23
2019-03-03T20:48:34.486Z,57.43
2019-03-03T20:50:39.417Z,43.80
2019-03-03T20:52:43.658Z,42.00
2019-03-03T20:54:48.727Z,39.10
2019-03-03T20:56:53.395Z,586.97
2019-03-03T20:58:58.037Z,335.50
2019-03-03T21:01:03.743Z,99.40
2019-03-03T21:03:09.198Z,52.57
2019-03-03T21:05:14.181Z,47.00
2019-03-03T21:07:18.617Z,42.70
2019-03-03T21:09:25.872Z,107.60
2019-03-03T21:11:30.255Z,354.67
2019-03-03T21:13:34.560Z,598.17
2019-03-03T21:15:40.549Z,363.60
2019-03-03T21:17:44.906Z,135.53
2019-03-03T21:19:49.609Z,57.83
2019-03-03T21:21:57.407Z,168.67
2019-03-03T21:24:01.812Z,77.47
2019-03-03T21:26:08.324Z,181.47
2019-03-03T21:28:14.690Z,272.57
2019-03-03T21:30:21.590Z,136.83
2019-03-03T21:32:26.621Z,64.97
2019-03-03T21:34:32.904Z,46.60
2019-03-03T21:36:37.921Z,85.27
2019-03-03T21:38:42.564Z,78.83
2019-03-03T21:40:47.350Z,83.17
2019-03-03T21:42:52.432Z,445.50
2019-03-03T21:44:57.109Z,566.63
2019-03-03T21:47:03.398Z,596.93
2019-03-03T21:49:08.255Z,451.30
2019-03-03T21:51:12.931Z,230.07
2019-03-03T21:53:17.629Z,103.57
2019-03-03T21:55:22.129Z,60.77
2019-03-03T21:57:27.683Z,46.60
2019-03-03T21:59:32.683Z,44.33
2019-03-03T22:01:37.000Z,35.40
2019-03-03T22:03:41.617Z,37.93
2019-03-03T22:05:46.551Z,35.43
2019-03-03T22:07:51.026Z,37.10
2019-03-03T22:09:55.581Z,34.13
2019-03-03T22:12:00.359Z,452.70
2019-03-03T22:14:04.787Z,255.33
2019-03-03T22:16:09.110Z,200.57
2019-03-03T22:18:14.734Z,121.23
2019-03-03T22:20:19.364Z,78.93
2019-03-03T22:22:23.827Z,234.47
2019-03-03T22:24:28.801Z,107.63
2019-03-03T22:26:33.445Z,494.13
2019-03-03T22:28:38.185Z,498.90
2019-03-03T22:30:43.859Z,414.10
2019-03-03T22:32:48.723Z,405.77
2019-03-03T22:34:53.186Z,233.73
2019-03-03T22:36:57.877Z,124.70
2019-03-03T22:39:02.239Z,67.27
2019-03-03T22:41:07.166Z,50.10
2019-03-03T22:43:12.827Z,35.80
2019-03-03T22:45:17.792Z,34.50
2019-03-03T22:47:22.324Z,33.87
2019-03-03T22:49:26.982Z,28.30
2019-03-03T22:51:31.135Z,27.80
2019-03-03T22:53:35.582Z,27.20
2019-03-03T22:55:41.806Z,27.37
2019-03-03T22:57:45.987Z,25.63
2019-03-03T22:59:50.143Z,27.80
2019-03-03T23:01:54.677Z,25.70
2019-03-03T23:04:25.446Z,27.17
2019-03-03T23:06:51.191Z,26.20
2019-03-03T23:09:48.581Z,25.27
2019-03-03T23:12:05.368Z,23.20
2019-03-03T23:14:43.426Z,26.27
2019-03-03T23:17:27.277Z,26.67
2019-03-03T23:20:09.064Z,24.77
2019-03-03T23:23:04.879Z,24.50
2019-03-03T23:25:45.665Z,27.43
2019-03-03T23:27:49.804Z,24.03
2019-03-03T23:29:54.122Z,26.13
2019-03-03T23:31:58.708Z,25.30
2019-03-03T23:34:03.165Z,26.93
2019-03-03T23:36:07.346Z,24.90
2019-03-03T23:38:11.861Z,24.57
2019-03-03T23:40:16.162Z,25.00
2019-03-03T23:42:20.324Z,24.73
2019-03-03T23:44:24.858Z,27.73
2019-03-03T23:46:29.050Z,25.07
2019-03-03T23:48:33.269Z,23.80
2019-03-03T23:50:37.719Z,23.50
2019-03-03T23:52:41.931Z,24.47
2019-03-03T23:54:46.138Z,23.97
2019-03-03T23:56:50.709Z,24.20
2019-03-03T23:58:55.041Z,25.20
